sensor_id;sensor_type;location;lat;lon;timestamp;pressure;altitude;pressure_sealevel;temperature;humidity
72950;BME280;64868;45.710;9.590;2022-12-07T00:00:54;98694.16;;;2.12;76.31
72950;BME280;64868;45.710;9.590;2022-12-07T00:03:20;98700.22;;;2.17;77.23
72950;BME280;64868;45.710;9.590;2022-12-07T00:05:45;98689.44;;;2.37;76.08
72950;BME280;64868;45.710;9.590;2022-12-07T00:08:11;98694.81;;;2.37;76.51
72950;BME280;64868;45.710;9.590;2022-12-07T00:10:36;98691.81;;;2.25;76.65
72950;BME280;64868;45.710;9.590;2022-12-07T00:13:02;98694.56;;;2.23;75.74
72950;BME280;64868;45.710;9.590;2022-12-07T00:15:27;98688.66;;;2.15;76.49
72950;BME280;64868;45.710;9.590;2022-12-07T00:17:53;98684.69;;;2.24;75.43
72950;BME280;64868;45.710;9.590;2022-12-07T00:20:19;98680.03;;;2.07;76.29
72950;BME280;64868;45.710;9.590;2022-12-07T00:22:47;98683.06;;;2.19;76.58
72950;BME280;64868;45.710;9.590;2022-12-07T00:25:12;98665.25;;;1.97;76.58
72950;BME280;64868;45.710;9.590;2022-12-07T00:27:38;98682.19;;;1.99;76.96
72950;BME280;64868;45.710;9.590;2022-12-07T00:30:04;98664.84;;;1.85;77.63
72950;BME280;64868;45.710;9.590;2022-12-07T00:32:29;98670.91;;;1.90;76.11
72950;BME280;64868;45.710;9.590;2022-12-07T00:34:55;98677.22;;;1.89;77.10
72950;BME280;64868;45.710;9.590;2022-12-07T00:37:20;98657.72;;;1.84;76.35
72950;BME280;64868;45.710;9.590;2022-12-07T00:39:46;98668.97;;;1.94;77.05
72950;BME280;64868;45.710;9.590;2022-12-07T00:42:11;98662.19;;;2.06;76.87
72950;BME280;64868;45.710;9.590;2022-12-07T00:44:37;98662.09;;;2.07;75.50
72950;BME280;64868;45.710;9.590;2022-12-07T00:47:03;98656.47;;;2.13;75.83
72950;BME280;64868;45.710;9.590;2022-12-07T00:49:28;98646.22;;;2.22;75.75
72950;BME280;64868;45.710;9.590;2022-12-07T00:51:54;98647.03;;;2.03;75.29
72950;BME280;64868;45.710;9.590;2022-12-07T00:54:19;98648.19;;;2.18;75.65
72950;BME280;64868;45.710;9.590;2022-12-07T00:56:45;98654.84;;;2.09;74.81
72950;BME280;64868;45.710;9.590;2022-12-07T00:59:12;98653.06;;;2.08;75.35
72950;BME280;64868;45.710;9.590;2022-12-07T01:01:42;98651.47;;;2.04;76.32
72950;BME280;64868;45.710;9.590;2022-12-07T01:04:08;98622.66;;;1.87;75.80
72950;BME280;64868;45.710;9.590;2022-12-07T01:06:34;98646.72;;;1.90;76.46
72950;BME280;64868;45.710;9.590;2022-12-07T01:09:00;98650.81;;;1.99;76.06
72950;BME280;64868;45.710;9.590;2022-12-07T01:11:27;98653.06;;;2.08;75.69
72950;BME280;64868;45.710;9.590;2022-12-07T01:13:54;98640.19;;;1.96;76.51
72950;BME280;64868;45.710;9.590;2022-12-07T01:16:22;98623.09;;;1.78;76.15
72950;BME280;64868;45.710;9.590;2022-12-07T01:18:49;98639.28;;;1.97;75.96
72950;BME280;64868;45.710;9.590;2022-12-07T01:21:24;98645.44;;;1.99;75.44
72950;BME280;64868;45.710;9.590;2022-12-07T01:23:50;98630.47;;;2.33;73.54
72950;BME280;64868;45.710;9.590;2022-12-07T01:26:18;98632.50;;;2.28;73.56
72950;BME280;64868;45.710;9.590;2022-12-07T01:28:44;98635.25;;;2.26;75.08
72950;BME280;64868;45.710;9.590;2022-12-07T01:31:14;98626.28;;;2.07;75.85
72950;BME280;64868;45.710;9.590;2022-12-07T01:33:42;98628.88;;;2.08;76.01
72950;BME280;64868;45.710;9.590;2022-12-07T01:36:17;98619.56;;;1.97;74.50
72950;BME280;64868;45.710;9.590;2022-12-07T01:38:45;98635.34;;;2.04;75.16
72950;BME280;64868;45.710;9.590;2022-12-07T01:41:11;98617.41;;;1.84;75.20
72950;BME280;64868;45.710;9.590;2022-12-07T01:46:38;98619.97;;;1.87;75.48
72950;BME280;64868;45.710;9.590;2022-12-07T01:49:07;98628.69;;;1.92;76.09
72950;BME280;64868;45.710;9.590;2022-12-07T01:51:34;98617.34;;;2.06;74.49
72950;BME280;64868;45.710;9.590;2022-12-07T01:54:03;98638.03;;;2.04;74.47
72950;BME280;64868;45.710;9.590;2022-12-07T01:56:29;98632.03;;;2.18;75.04
72950;BME280;64868;45.710;9.590;2022-12-07T01:58:57;98612.88;;;1.86;75.67
72950;BME280;64868;45.710;9.590;2022-12-07T02:01:25;98615.38;;;1.89;75.44
72950;BME280;64868;45.710;9.590;2022-12-07T02:03:51;98637.16;;;2.04;73.94
72950;BME280;64868;45.710;9.590;2022-12-07T02:06:21;98636.38;;;2.02;73.90
72950;BME280;64868;45.710;9.590;2022-12-07T02:08:48;98625.28;;;1.89;75.34
72950;BME280;64868;45.710;9.590;2022-12-07T02:11:15;98632.34;;;1.91;74.10
72950;BME280;64868;45.710;9.590;2022-12-07T02:13:42;98623.78;;;1.82;75.68
72950;BME280;64868;45.710;9.590;2022-12-07T02:27:45;98630.97;;;1.81;74.69
72950;BME280;64868;45.710;9.590;2022-12-07T02:30:15;98595.81;;;1.67;75.25
72950;BME280;64868;45.710;9.590;2022-12-07T02:33:05;98626.47;;;1.82;76.07
72950;BME280;64868;45.710;9.590;2022-12-07T02:35:39;98624.66;;;2.03;74.47
72950;BME280;64868;45.710;9.590;2022-12-07T02:38:16;98615.94;;;1.98;74.09
72950;BME280;64868;45.710;9.590;2022-12-07T02:40:54;98610.69;;;1.94;75.04
72950;BME280;64868;45.710;9.590;2022-12-07T02:43:26;98614.16;;;2.17;74.38
72950;BME280;64868;45.710;9.590;2022-12-07T02:45:56;98609.31;;;1.86;74.11
72950;BME280;64868;45.710;9.590;2022-12-07T02:48:24;98601.25;;;1.86;74.27
72950;BME280;64868;45.710;9.590;2022-12-07T02:50:52;98607.75;;;1.80;74.75
72950;BME280;64868;45.710;9.590;2022-12-07T02:53:36;98623.13;;;1.77;76.04
72950;BME280;64868;45.710;9.590;2022-12-07T02:58:35;98614.13;;;1.57;76.72
72950;BME280;64868;45.710;9.590;2022-12-07T03:01:15;98615.28;;;1.52;76.77
72950;BME280;64868;45.710;9.590;2022-12-07T03:04:04;98592.56;;;1.38;75.87
72950;BME280;64868;45.710;9.590;2022-12-07T03:06:36;98614.13;;;1.57;75.92
72950;BME280;64868;45.710;9.590;2022-12-07T03:09:38;98614.94;;;1.59;75.66
72950;BME280;64868;45.710;9.590;2022-12-07T03:12:15;98611.53;;;1.56;75.80
72950;BME280;64868;45.710;9.590;2022-12-07T03:15:02;98612.72;;;1.69;76.36
72950;BME280;64868;45.710;9.590;2022-12-07T03:17:31;98614.41;;;1.72;76.08
72950;BME280;64868;45.710;9.590;2022-12-07T03:20:02;98585.53;;;1.56;76.21
72950;BME280;64868;45.710;9.590;2022-12-07T03:22:31;98604.59;;;1.70;76.03
72950;BME280;64868;45.710;9.590;2022-12-07T03:25:02;98603.06;;;1.65;75.36
72950;BME280;64868;45.710;9.590;2022-12-07T03:27:35;98596.19;;;1.58;76.12
72950;BME280;64868;45.710;9.590;2022-12-07T03:30:06;98596.94;;;1.61;75.29
72950;BME280;64868;45.710;9.590;2022-12-07T03:37:34;98574.91;;;1.33;76.14
72950;BME280;64868;45.710;9.590;2022-12-07T03:40:06;98600.69;;;1.57;75.46
72950;BME280;64868;45.710;9.590;2022-12-07T03:42:33;98594.00;;;1.67;74.25
72950;BME280;64868;45.710;9.590;2022-12-07T03:45:01;98596.22;;;1.78;75.07
72950;BME280;64868;45.710;9.590;2022-12-07T03:47:32;98600.91;;;1.73;75.31
72950;BME280;64868;45.710;9.590;2022-12-07T03:50:12;98595.81;;;1.67;74.90
72950;BME280;64868;45.710;9.590;2022-12-07T03:52:55;98559.66;;;1.54;75.02
72950;BME280;64868;45.710;9.590;2022-12-07T03:55:30;98578.03;;;1.63;74.82
72950;BME280;64868;45.710;9.590;2022-12-07T03:58:00;98580.19;;;1.55;74.71
72950;BME280;64868;45.710;9.590;2022-12-07T04:00:27;98577.06;;;1.65;75.42
72950;BME280;64868;45.710;9.590;2022-12-07T04:02:54;98584.13;;;1.68;74.44
72950;BME280;64868;45.710;9.590;2022-12-07T04:05:20;98564.38;;;1.49;75.17
72950;BME280;64868;45.710;9.590;2022-12-07T04:07:45;98579.19;;;1.57;74.75
72950;BME280;64868;45.710;9.590;2022-12-07T04:10:11;98535.22;;;1.39;74.22
72950;BME280;64868;45.710;9.590;2022-12-07T04:12:36;98582.16;;;1.72;73.81
72950;BME280;64868;45.710;9.590;2022-12-07T04:15:03;98565.03;;;1.54;75.53
72950;BME280;64868;45.710;9.590;2022-12-07T04:17:29;98562.47;;;1.51;75.27
72950;BME280;64868;45.710;9.590;2022-12-07T04:19:54;98565.38;;;1.46;75.97
72950;BME280;64868;45.710;9.590;2022-12-07T04:22:20;98557.06;;;1.52;75.14
72950;BME280;64868;45.710;9.590;2022-12-07T04:24:45;98567.47;;;1.60;75.31
72950;BME280;64868;45.710;9.590;2022-12-07T04:27:11;98557.44;;;1.43;75.53
72950;BME280;64868;45.710;9.590;2022-12-07T04:29:36;98542.84;;;1.28;75.89
72950;BME280;64868;45.710;9.590;2022-12-07T04:32:02;98550.59;;;1.36;75.77
72950;BME280;64868;45.710;9.590;2022-12-07T04:34:28;98550.91;;;1.28;75.75
72950;BME280;64868;45.710;9.590;2022-12-07T04:36:54;98531.13;;;1.10;76.55
72950;BME280;64868;45.710;9.590;2022-12-07T04:41:46;98544.22;;;1.18;76.89
72950;BME280;64868;45.710;9.590;2022-12-07T04:44:13;98554.69;;;1.24;76.16
72950;BME280;64868;45.710;9.590;2022-12-07T04:46:40;98544.81;;;1.25;76.53
72950;BME280;64868;45.710;9.590;2022-12-07T04:49:06;98525.44;;;1.18;75.54
72950;BME280;64868;45.710;9.590;2022-12-07T04:51:31;98550.75;;;1.33;75.75
72950;BME280;64868;45.710;9.590;2022-12-07T04:53:57;98546.38;;;1.30;75.59
72950;BME280;64868;45.710;9.590;2022-12-07T04:56:24;98553.97;;;1.41;74.91
72950;BME280;64868;45.710;9.590;2022-12-07T04:58:52;98548.31;;;1.47;75.16
72950;BME280;64868;45.710;9.590;2022-12-07T05:01:18;98553.69;;;1.47;75.05
72950;BME280;64868;45.710;9.590;2022-12-07T05:03:45;98559.25;;;1.42;75.56
72950;BME280;64868;45.710;9.590;2022-12-07T05:06:11;98547.03;;;1.76;72.80
72950;BME280;64868;45.710;9.590;2022-12-07T05:08:41;98517.03;;;1.46;73.71
72950;BME280;64868;45.710;9.590;2022-12-07T05:11:08;98543.34;;;1.58;73.54
72950;BME280;64868;45.710;9.590;2022-12-07T05:13:34;98543.75;;;1.49;73.58
72950;BME280;64868;45.710;9.590;2022-12-07T05:15:59;98539.78;;;1.37;74.83
72950;BME280;64868;45.710;9.590;2022-12-07T05:18:25;98525.66;;;1.32;74.43
72950;BME280;64868;45.710;9.590;2022-12-07T05:20:51;98561.00;;;1.43;74.42
72950;BME280;64868;45.710;9.590;2022-12-07T05:23:17;98555.63;;;1.43;75.13
72950;BME280;64868;45.710;9.590;2022-12-07T05:25:44;98556.91;;;1.35;75.11
72950;BME280;64868;45.710;9.590;2022-12-07T05:28:10;98561.66;;;1.28;75.44
72950;BME280;64868;45.710;9.590;2022-12-07T05:30:35;98537.41;;;1.09;75.11
72950;BME280;64868;45.710;9.590;2022-12-07T05:33:02;98568.44;;;1.16;75.94
72950;BME280;64868;45.710;9.590;2022-12-07T05:35:28;98566.81;;;1.12;75.72
72950;BME280;64868;45.710;9.590;2022-12-07T05:37:55;98573.31;;;1.07;76.50
72950;BME280;64868;45.710;9.590;2022-12-07T05:40:20;98569.69;;;1.08;76.52
72950;BME280;64868;45.710;9.590;2022-12-07T05:42:46;98559.75;;;1.10;76.69
72950;BME280;64868;45.710;9.590;2022-12-07T05:45:12;98556.19;;;1.09;76.08
72950;BME280;64868;45.710;9.590;2022-12-07T05:47:37;98554.03;;;0.97;76.30
72950;BME280;64868;45.710;9.590;2022-12-07T05:50:05;98575.81;;;1.11;76.40
72950;BME280;64868;45.710;9.590;2022-12-07T05:52:31;98575.81;;;1.11;76.50
72950;BME280;64868;45.710;9.590;2022-12-07T05:54:56;98570.00;;;1.22;76.36
72950;BME280;64868;45.710;9.590;2022-12-07T05:57:22;98566.59;;;1.17;76.41
72950;BME280;64868;45.710;9.590;2022-12-07T05:59:47;98564.53;;;1.24;75.71
72950;BME280;64868;45.710;9.590;2022-12-07T06:02:15;98570.38;;;1.13;76.96
72950;BME280;64868;45.710;9.590;2022-12-07T06:04:43;98574.88;;;1.12;76.87
72950;BME280;64868;45.710;9.590;2022-12-07T06:07:10;98573.38;;;1.05;76.95
72950;BME280;64868;45.710;9.590;2022-12-07T06:09:36;98571.44;;;1.09;76.59
72950;BME280;64868;45.710;9.590;2022-12-07T06:12:02;98576.88;;;1.07;76.15
72950;BME280;64868;45.710;9.590;2022-12-07T06:14:46;98580.56;;;1.05;76.58
72950;BME280;64868;45.710;9.590;2022-12-07T06:17:13;98546.53;;;0.83;76.28
72950;BME280;64868;45.710;9.590;2022-12-07T06:19:40;98548.38;;;0.83;76.82
72950;BME280;64868;45.710;9.590;2022-12-07T06:22:06;98581.63;;;1.01;76.22
72950;BME280;64868;45.710;9.590;2022-12-07T06:24:33;98582.56;;;1.00;76.42
72950;BME280;64868;45.710;9.590;2022-12-07T06:26:59;98580.69;;;1.02;76.44
72950;BME280;64868;45.710;9.590;2022-12-07T06:29:24;98573.97;;;0.91;76.71
72950;BME280;64868;45.710;9.590;2022-12-07T06:31:50;98575.47;;;0.99;76.72
72950;BME280;64868;45.710;9.590;2022-12-07T06:34:18;98562.31;;;0.91;76.37
72950;BME280;64868;45.710;9.590;2022-12-07T06:36:44;98588.47;;;1.08;76.73
72950;BME280;64868;45.710;9.590;2022-12-07T06:39:11;98585.13;;;1.03;76.21
72950;BME280;64868;45.710;9.590;2022-12-07T06:41:37;98575.38;;;1.00;76.19
72950;BME280;64868;45.710;9.590;2022-12-07T06:44:05;98581.22;;;1.10;75.61
72950;BME280;64868;45.710;9.590;2022-12-07T06:46:31;98572.50;;;1.05;75.91
72950;BME280;64868;45.710;9.590;2022-12-07T06:48:56;98579.28;;;1.13;75.59
72950;BME280;64868;45.710;9.590;2022-12-07T06:51:22;98557.22;;;1.07;76.21
72950;BME280;64868;45.710;9.590;2022-12-07T06:53:48;98563.34;;;1.10;75.15
72950;BME280;64868;45.710;9.590;2022-12-07T06:56:14;98593.63;;;1.34;75.66
72950;BME280;64868;45.710;9.590;2022-12-07T06:58:40;98586.25;;;1.60;73.82
72950;BME280;64868;45.710;9.590;2022-12-07T07:01:17;98579.94;;;1.61;73.52
72950;BME280;64868;45.710;9.590;2022-12-07T07:03:44;98584.44;;;1.60;73.41
72950;BME280;64868;45.710;9.590;2022-12-07T07:06:10;98575.06;;;1.70;72.25
72950;BME280;64868;45.710;9.590;2022-12-07T07:08:37;98581.13;;;1.74;72.83
72950;BME280;64868;45.710;9.590;2022-12-07T07:11:03;98588.69;;;1.86;72.84
72950;BME280;64868;45.710;9.590;2022-12-07T07:13:28;98587.59;;;1.90;71.16
72950;BME280;64868;45.710;9.590;2022-12-07T07:15:54;98586.56;;;1.93;71.65
72950;BME280;64868;45.710;9.590;2022-12-07T07:18:20;98581.75;;;1.81;72.49
72950;BME280;64868;45.710;9.590;2022-12-07T07:20:46;98593.13;;;2.06;72.33
72950;BME280;64868;45.710;9.590;2022-12-07T07:23:14;98574.03;;;1.93;72.34
72950;BME280;64868;45.710;9.590;2022-12-07T07:25:40;98590.25;;;2.11;70.88
72950;BME280;64868;45.710;9.590;2022-12-07T07:28:05;98594.28;;;2.01;71.79
72950;BME280;64868;45.710;9.590;2022-12-07T07:30:31;98578.31;;;1.98;71.16
72950;BME280;64868;45.710;9.590;2022-12-07T07:33:00;98592.13;;;2.09;70.41
72950;BME280;64868;45.710;9.590;2022-12-07T07:35:28;98599.78;;;2.18;70.14
72950;BME280;64868;45.710;9.590;2022-12-07T07:37:54;98601.47;;;2.21;70.16
72950;BME280;64868;45.710;9.590;2022-12-07T07:40:19;98604.50;;;2.13;70.94
72950;BME280;64868;45.710;9.590;2022-12-07T07:42:47;98602.56;;;2.35;71.02
72950;BME280;64868;45.710;9.590;2022-12-07T07:45:13;98593.38;;;2.21;71.03
72950;BME280;64868;45.710;9.590;2022-12-07T07:47:39;98603.78;;;2.28;70.37
72950;BME280;64868;45.710;9.590;2022-12-07T07:50:05;98589.41;;;2.29;70.32
72950;BME280;64868;45.710;9.590;2022-12-07T07:52:30;98590.00;;;2.55;69.03
72950;BME280;64868;45.710;9.590;2022-12-07T07:54:56;98588.94;;;2.38;70.04
72950;BME280;64868;45.710;9.590;2022-12-07T07:57:24;98588.03;;;2.39;69.25
72950;BME280;64868;45.710;9.590;2022-12-07T07:59:49;98587.06;;;2.40;69.62
72950;BME280;64868;45.710;9.590;2022-12-07T08:02:17;98609.56;;;2.58;68.85
72950;BME280;64868;45.710;9.590;2022-12-07T08:04:43;98596.03;;;2.60;68.51
72950;BME280;64868;45.710;9.590;2022-12-07T08:07:12;98587.34;;;2.53;67.69
72950;BME280;64868;45.710;9.590;2022-12-07T08:09:40;98595.63;;;2.86;68.08
72950;BME280;64868;45.710;9.590;2022-12-07T08:12:14;98612.63;;;3.06;67.86
72950;BME280;64868;45.710;9.590;2022-12-07T08:14:39;98630.38;;;3.10;66.40
72950;BME280;64868;45.710;9.590;2022-12-07T08:17:05;98609.31;;;3.18;66.25
72950;BME280;64868;45.710;9.590;2022-12-07T08:19:31;98623.38;;;3.25;66.94
72950;BME280;64868;45.710;9.590;2022-12-07T08:21:56;98616.25;;;3.24;66.67
72950;BME280;64868;45.710;9.590;2022-12-07T08:24:22;98631.97;;;3.50;64.79
72950;BME280;64868;45.710;9.590;2022-12-07T08:26:47;98637.06;;;3.74;64.73
72950;BME280;64868;45.710;9.590;2022-12-07T08:29:13;98633.59;;;3.72;66.63
72950;BME280;64868;45.710;9.590;2022-12-07T08:31:39;98625.09;;;3.79;65.08
72950;BME280;64868;45.710;9.590;2022-12-07T08:34:10;98632.41;;;7.70;53.61
72950;BME280;64868;45.710;9.590;2022-12-07T08:36:36;98625.19;;;12.51;40.66
72950;BME280;64868;45.710;9.590;2022-12-07T08:39:02;98612.97;;;14.83;34.41
72950;BME280;64868;45.710;9.590;2022-12-07T08:41:27;98629.38;;;16.30;31.93
72950;BME280;64868;45.710;9.590;2022-12-07T08:43:53;98632.97;;;19.90;25.60
72950;BME280;64868;45.710;9.590;2022-12-07T08:46:21;98641.41;;;22.94;21.61
72950;BME280;64868;45.710;9.590;2022-12-07T08:51:18;98645.38;;;24.52;19.32
72950;BME280;64868;45.710;9.590;2022-12-07T08:53:45;98643.94;;;25.09;18.65
72950;BME280;64868;45.710;9.590;2022-12-07T08:56:11;98637.47;;;25.62;18.52
72950;BME280;64868;45.710;9.590;2022-12-07T08:58:38;98635.28;;;25.70;17.87
72950;BME280;64868;45.710;9.590;2022-12-07T09:01:04;98629.00;;;27.10;16.68
72950;BME280;64868;45.710;9.590;2022-12-07T09:03:29;98639.63;;;26.69;16.08
72950;BME280;64868;45.710;9.590;2022-12-07T09:05:55;98642.69;;;26.61;16.96
72950;BME280;64868;45.710;9.590;2022-12-07T09:08:22;98652.31;;;26.27;16.36
72950;BME280;64868;45.710;9.590;2022-12-07T09:10:51;98653.53;;;25.93;16.71
72950;BME280;64868;45.710;9.590;2022-12-07T09:13:16;98651.25;;;26.66;16.34
72950;BME280;64868;45.710;9.590;2022-12-07T09:15:41;98654.75;;;26.55;16.29
72950;BME280;64868;45.710;9.590;2022-12-07T09:18:07;98661.84;;;26.89;16.32
72950;BME280;64868;45.710;9.590;2022-12-07T09:20:32;98665.69;;;28.13;15.18
72950;BME280;64868;45.710;9.590;2022-12-07T09:22:59;98658.06;;;28.21;15.07
72950;BME280;64868;45.710;9.590;2022-12-07T09:25:24;98667.78;;;28.18;15.22
72950;BME280;64868;45.710;9.590;2022-12-07T09:27:55;98658.84;;;28.28;14.89
72950;BME280;64868;45.710;9.590;2022-12-07T09:30:21;98663.53;;;28.94;14.76
72950;BME280;64868;45.710;9.590;2022-12-07T09:32:46;98662.00;;;28.98;14.19
72950;BME280;64868;45.710;9.590;2022-12-07T09:35:12;98655.72;;;28.84;14.75
72950;BME280;64868;45.710;9.590;2022-12-07T09:37:37;98646.84;;;29.88;14.10
72950;BME280;64868;45.710;9.590;2022-12-07T09:40:04;98647.91;;;29.99;13.56
72950;BME280;64868;45.710;9.590;2022-12-07T09:42:33;98655.31;;;30.40;13.55
72950;BME280;64868;45.710;9.590;2022-12-07T09:44:59;98649.16;;;29.44;13.61
72950;BME280;64868;45.710;9.590;2022-12-07T09:47:27;98638.25;;;24.43;18.27
72950;BME280;64868;45.710;9.590;2022-12-07T09:49:55;98641.09;;;27.79;15.37
72950;BME280;64868;45.710;9.590;2022-12-07T09:52:27;98638.00;;;27.44;16.16
72950;BME280;64868;45.710;9.590;2022-12-07T09:54:54;98641.25;;;28.69;14.60
72950;BME280;64868;45.710;9.590;2022-12-07T09:57:28;98639.25;;;29.42;14.01
72950;BME280;64868;45.710;9.590;2022-12-07T09:59:56;98638.50;;;29.23;14.44
72950;BME280;64868;45.710;9.590;2022-12-07T10:04:53;98626.56;;;29.86;13.53
72950;BME280;64868;45.710;9.590;2022-12-07T10:07:19;98626.41;;;30.04;14.32
72950;BME280;64868;45.710;9.590;2022-12-07T10:09:44;98621.66;;;29.23;14.01
72950;BME280;64868;45.710;9.590;2022-12-07T10:12:11;98629.03;;;29.59;13.73
72950;BME280;64868;45.710;9.590;2022-12-07T10:14:39;98623.63;;;29.34;14.40
72950;BME280;64868;45.710;9.590;2022-12-07T10:17:32;98623.81;;;29.21;14.44
72950;BME280;64868;45.710;9.590;2022-12-07T10:20:20;98626.88;;;29.19;14.86
72950;BME280;64868;45.710;9.590;2022-12-07T10:25:26;98606.38;;;29.19;14.23
72950;BME280;64868;45.710;9.590;2022-12-07T10:30:33;98612.91;;;28.10;15.48
72950;BME280;64868;45.710;9.590;2022-12-07T10:33:40;98589.00;;;27.71;16.36
72950;BME280;64868;45.710;9.590;2022-12-07T10:36:24;98592.66;;;26.78;16.13
72950;BME280;64868;45.710;9.590;2022-12-07T10:39:03;98574.22;;;26.32;17.52
72950;BME280;64868;45.710;9.590;2022-12-07T10:41:29;98588.16;;;26.39;17.93
72950;BME280;64868;45.710;9.590;2022-12-07T10:43:57;98579.34;;;25.26;17.77
72950;BME280;64868;45.710;9.590;2022-12-07T10:46:43;98567.91;;;26.50;16.53
72950;BME280;64868;45.710;9.590;2022-12-07T10:55:16;98562.59;;;25.26;18.07
72950;BME280;64868;45.710;9.590;2022-12-07T11:07:02;98562.63;;;23.09;20.51
72950;BME280;64868;45.710;9.590;2022-12-07T11:12:38;98561.09;;;23.41;20.56
72950;BME280;64868;45.710;9.590;2022-12-07T11:15:14;98550.94;;;22.21;21.48
72950;BME280;64868;45.710;9.590;2022-12-07T11:18:10;98556.81;;;21.60;21.96
72950;BME280;64868;45.710;9.590;2022-12-07T11:26:17;98537.97;;;22.77;20.36
72950;BME280;64868;45.710;9.590;2022-12-07T11:37:32;98526.09;;;11.43;38.66
72950;BME280;64868;45.710;9.590;2022-12-07T11:40:04;98518.34;;;10.73;40.21
72950;BME280;64868;45.710;9.590;2022-12-07T11:42:38;98512.97;;;10.26;41.50
72950;BME280;64868;45.710;9.590;2022-12-07T11:45:15;98521.09;;;10.04;42.41
72950;BME280;64868;45.710;9.590;2022-12-07T11:48:06;98525.88;;;9.78;43.77
72950;BME280;64868;45.710;9.590;2022-12-07T11:50:41;98514.06;;;9.66;43.88
72950;BME280;64868;45.710;9.590;2022-12-07T11:55:52;98521.00;;;9.35;45.73
72950;BME280;64868;45.710;9.590;2022-12-07T11:58:40;98515.28;;;9.26;45.67
72950;BME280;64868;45.710;9.590;2022-12-07T12:03:47;98510.81;;;9.01;47.94
72950;BME280;64868;45.710;9.590;2022-12-07T12:06:17;98493.25;;;8.82;47.79
72950;BME280;64868;45.710;9.590;2022-12-07T12:08:53;98509.16;;;8.75;47.86
72950;BME280;64868;45.710;9.590;2022-12-07T12:14:24;98495.81;;;8.72;48.75
72950;BME280;64868;45.710;9.590;2022-12-07T12:25:42;98493.25;;;8.58;49.01
72950;BME280;64868;45.710;9.590;2022-12-07T12:28:27;98483.44;;;8.55;47.72
72950;BME280;64868;45.710;9.590;2022-12-07T12:33:32;98469.06;;;8.42;47.71
72950;BME280;64868;45.710;9.590;2022-12-07T12:39:17;98469.41;;;8.37;48.04
72950;BME280;64868;45.710;9.590;2022-12-07T12:51:50;98476.94;;;8.32;57.20
72950;BME280;64868;45.710;9.590;2022-12-07T12:54:21;98465.44;;;8.28;58.87
72950;BME280;64868;45.710;9.590;2022-12-07T12:56:59;98474.25;;;8.32;61.56
72950;BME280;64868;45.710;9.590;2022-12-07T12:59:32;98458.16;;;8.29;62.86
72950;BME280;64868;45.710;9.590;2022-12-07T13:15:53;98456.38;;;7.78;65.68
72950;BME280;64868;45.710;9.590;2022-12-07T13:23:22;98436.28;;;7.43;66.65
72950;BME280;64868;45.710;9.590;2022-12-07T13:28:52;98453.84;;;7.50;68.81
72950;BME280;64868;45.710;9.590;2022-12-07T13:34:00;98442.56;;;7.43;66.72
72950;BME280;64868;45.710;9.590;2022-12-07T13:36:29;98438.09;;;7.29;68.08
72950;BME280;64868;45.710;9.590;2022-12-07T13:39:19;98451.00;;;7.26;68.80
72950;BME280;64868;45.710;9.590;2022-12-07T13:41:48;98447.81;;;7.19;68.92
72950;BME280;64868;45.710;9.590;2022-12-07T13:44:16;98444.16;;;7.20;68.93
72950;BME280;64868;45.710;9.590;2022-12-07T13:49:29;98442.66;;;7.29;69.93
72950;BME280;64868;45.710;9.590;2022-12-07T13:52:14;98434.53;;;7.29;69.75
72950;BME280;64868;45.710;9.590;2022-12-07T13:54:54;98432.34;;;7.34;69.37
72950;BME280;64868;45.710;9.590;2022-12-07T13:57:21;98430.41;;;7.36;67.91
72950;BME280;64868;45.710;9.590;2022-12-07T13:59:47;98427.03;;;7.32;68.57
72950;BME280;64868;45.710;9.590;2022-12-07T14:02:27;98433.00;;;7.25;69.80
72950;BME280;64868;45.710;9.590;2022-12-07T14:05:14;98419.53;;;7.23;69.93
72950;BME280;64868;45.710;9.590;2022-12-07T14:07:55;98436.38;;;7.28;68.73
72950;BME280;64868;45.710;9.590;2022-12-07T14:12:51;98425.19;;;7.20;69.62
72950;BME280;64868;45.710;9.590;2022-12-07T14:15:23;98431.34;;;7.22;70.07
72950;BME280;64868;45.710;9.590;2022-12-07T14:17:52;98428.84;;;7.19;70.48
72950;BME280;64868;45.710;9.590;2022-12-07T14:20:36;98438.94;;;7.17;69.61
72950;BME280;64868;45.710;9.590;2022-12-07T14:23:04;98441.31;;;7.09;70.19
72950;BME280;64868;45.710;9.590;2022-12-07T14:25:46;98433.78;;;7.00;71.49
72950;BME280;64868;45.710;9.590;2022-12-07T14:28:30;98433.78;;;7.00;71.07
72950;BME280;64868;45.710;9.590;2022-12-07T14:30:57;98443.09;;;6.96;70.24
72950;BME280;64868;45.710;9.590;2022-12-07T14:33:23;98434.94;;;6.83;71.48
72950;BME280;64868;45.710;9.590;2022-12-07T14:35:49;98438.84;;;6.79;71.37
72950;BME280;64868;45.710;9.590;2022-12-07T14:38:14;98443.91;;;6.71;71.43
72950;BME280;64868;45.710;9.590;2022-12-07T14:40:40;98452.44;;;6.65;71.14
72950;BME280;64868;45.710;9.590;2022-12-07T14:43:10;98437.78;;;6.40;71.88
72950;BME280;64868;45.710;9.590;2022-12-07T14:45:37;98454.50;;;6.47;71.51
72950;BME280;64868;45.710;9.590;2022-12-07T14:48:02;98450.44;;;6.40;72.79
72950;BME280;64868;45.710;9.590;2022-12-07T14:50:28;98444.59;;;6.33;72.16
72950;BME280;64868;45.710;9.590;2022-12-07T14:52:56;98448.19;;;6.19;73.08
72950;BME280;64868;45.710;9.590;2022-12-07T14:55:29;98458.13;;;6.19;73.10
72950;BME280;64868;45.710;9.590;2022-12-07T14:57:56;98458.31;;;6.16;73.28
72950;BME280;64868;45.710;9.590;2022-12-07T15:00:23;98446.25;;;5.93;74.16
72950;BME280;64868;45.710;9.590;2022-12-07T15:02:50;98436.09;;;5.82;74.23
72950;BME280;64868;45.710;9.590;2022-12-07T15:05:16;98456.84;;;5.81;74.83
72950;BME280;64868;45.710;9.590;2022-12-07T15:07:42;98462.47;;;5.78;74.86
72950;BME280;64868;45.710;9.590;2022-12-07T15:10:17;98452.13;;;5.71;74.93
72950;BME280;64868;45.710;9.590;2022-12-07T15:12:43;98465.81;;;5.68;75.48
72950;BME280;64868;45.710;9.590;2022-12-07T15:15:09;98469.69;;;5.64;75.04
72950;BME280;64868;45.710;9.590;2022-12-07T15:17:34;98461.28;;;5.54;75.80
72950;BME280;64868;45.710;9.590;2022-12-07T15:20:00;98467.41;;;5.42;76.07
72950;BME280;64868;45.710;9.590;2022-12-07T15:22:25;98466.84;;;5.36;76.12
72950;BME280;64868;45.710;9.590;2022-12-07T15:24:50;98463.06;;;5.25;76.63
72950;BME280;64868;45.710;9.590;2022-12-07T15:27:16;98466.03;;;5.20;77.01
72950;BME280;64868;45.710;9.590;2022-12-07T15:29:41;98462.41;;;5.05;76.10